createdAt,value
2022-07-29T00:00:59.914Z,0
2022-07-29T00:01:59.898Z,0
2022-07-29T00:02:59.884Z,0
2022-07-29T00:03:59.887Z,0
2022-07-29T00:04:59.869Z,0
2022-07-29T00:05:59.852Z,0
2022-07-29T00:06:59.848Z,0
2022-07-29T00:07:59.833Z,0
2022-07-29T00:08:59.823Z,0
2022-07-29T00:09:59.821Z,0
2022-07-29T00:10:59.822Z,0
2022-07-29T00:11:59.800Z,0
2022-07-29T00:12:59.781Z,0
2022-07-29T00:13:59.769Z,0
2022-07-29T00:14:59.770Z,0
2022-07-29T00:15:59.749Z,0
2022-07-29T00:16:59.737Z,0
2022-07-29T00:17:59.734Z,0
2022-07-29T00:18:59.723Z,0
2022-07-29T00:19:59.714Z,0
2022-07-29T00:20:59.722Z,0
2022-07-29T00:21:59.693Z,0
2022-07-29T00:22:59.675Z,0
2022-07-29T00:23:59.662Z,0
2022-07-29T00:24:59.656Z,0
2022-07-29T00:25:59.648Z,0
2022-07-29T00:26:59.640Z,0
2022-07-29T00:27:59.625Z,0
2022-07-29T00:28:59.610Z,0
2022-07-29T00:29:59.602Z,0
2022-07-29T00:30:59.609Z,0
2022-07-29T00:31:59.579Z,0
2022-07-29T00:32:59.569Z,0
2022-07-29T00:33:59.572Z,0
2022-07-29T00:34:59.545Z,0
2022-07-29T00:35:59.542Z,0
2022-07-29T00:36:59.544Z,0
2022-07-29T00:37:59.517Z,0
2022-07-29T00:38:59.507Z,0
2022-07-29T00:39:59.500Z,0
2022-07-29T00:40:59.484Z,0
2022-07-29T00:41:59.464Z,0
2022-07-29T00:42:59.458Z,0
2022-07-29T00:43:59.449Z,0
2022-07-29T00:44:59.439Z,0
2022-07-29T00:45:59.421Z,0
2022-07-29T00:46:59.422Z,0
2022-07-29T00:47:59.423Z,0
2022-07-29T00:48:59.418Z,0
2022-07-29T00:49:59.385Z,0
2022-07-29T00:50:59.378Z,0
2022-07-29T00:51:59.362Z,0
2022-07-29T00:52:59.356Z,0
2022-07-29T00:53:59.340Z,0
2022-07-29T00:54:59.332Z,0
2022-07-29T00:55:59.318Z,0
2022-07-29T00:56:59.324Z,0
2022-07-29T00:57:59.328Z,0
2022-07-29T00:58:59.291Z,0
2022-07-29T00:59:59.291Z,0
2022-07-29T01:00:59.276Z,0
2022-07-29T01:01:59.265Z,0
2022-07-29T01:02:59.259Z,0
2022-07-29T01:03:59.258Z,0
2022-07-29T01:04:59.231Z,0
2022-07-29T01:05:59.219Z,0
2022-07-29T01:06:59.224Z,0
2022-07-29T01:07:59.205Z,0
2022-07-29T01:08:59.193Z,0
2022-07-29T01:09:59.175Z,0
2022-07-29T01:10:59.177Z,0
2022-07-29T01:11:59.155Z,0
2022-07-29T01:12:59.161Z,0
2022-07-29T01:13:59.142Z,0
2022-07-29T01:14:59.132Z,0
2022-07-29T01:15:59.129Z,0
2022-07-29T01:16:59.110Z,0
2022-07-29T01:17:59.090Z,0
2022-07-29T01:18:59.083Z,0
2022-07-29T01:19:59.075Z,0
2022-07-29T01:20:59.063Z,0
2022-07-29T01:21:59.054Z,0
2022-07-29T01:22:59.043Z,0
2022-07-29T01:23:59.033Z,0
2022-07-29T01:24:59.020Z,0
2022-07-29T01:25:59.006Z,0
2022-07-29T01:26:58.998Z,0
2022-07-29T01:27:58.988Z,0
2022-07-29T01:28:58.981Z,0
2022-07-29T01:29:58.973Z,0
2022-07-29T01:30:58.960Z,0
2022-07-29T01:31:58.949Z,0
2022-07-29T01:32:58.937Z,0
2022-07-29T01:33:58.929Z,0
2022-07-29T01:34:58.910Z,0
2022-07-29T01:35:58.909Z,0
2022-07-29T01:36:58.898Z,0
2022-07-29T01:37:58.885Z,0
2022-07-29T01:38:58.874Z,0
2022-07-29T01:39:58.863Z,0
2022-07-29T01:40:58.853Z,0
2022-07-29T01:41:58.897Z,0
2022-07-29T01:42:58.838Z,0
2022-07-29T01:43:58.821Z,0
2022-07-29T01:44:58.815Z,0
2022-07-29T01:45:58.797Z,0
2022-07-29T01:46:58.794Z,0
2022-07-29T01:47:58.780Z,0
2022-07-29T01:48:58.765Z,0
2022-07-29T01:49:58.761Z,0
2022-07-29T01:50:58.809Z,0
2022-07-29T01:51:58.722Z,0
2022-07-29T01:52:58.715Z,0
2022-07-29T01:53:58.701Z,0
2022-07-29T01:54:58.690Z,0
2022-07-29T01:55:58.691Z,0
2022-07-29T01:56:58.673Z,0
2022-07-29T01:57:58.660Z,0
2022-07-29T01:58:58.650Z,0
2022-07-29T01:59:58.639Z,0
2022-07-29T02:00:58.634Z,0
2022-07-29T02:01:58.639Z,0
2022-07-29T02:02:58.614Z,0
2022-07-29T02:03:58.596Z,0
2022-07-29T02:04:58.601Z,0
2022-07-29T02:05:58.590Z,0
2022-07-29T02:06:58.573Z,0
2022-07-29T02:07:58.573Z,0
2022-07-29T02:08:58.561Z,0
2022-07-29T02:09:58.556Z,0
2022-07-29T02:10:58.547Z,0
2022-07-29T02:11:58.529Z,0
2022-07-29T02:12:58.528Z,0
2022-07-29T02:13:58.508Z,0
2022-07-29T02:14:58.502Z,0
2022-07-29T02:15:58.476Z,0
2022-07-29T02:16:58.471Z,0
2022-07-29T02:17:58.456Z,0
2022-07-29T02:18:58.451Z,0
2022-07-29T02:19:58.445Z,0
2022-07-29T02:20:58.438Z,0
2022-07-29T02:21:58.412Z,0
2022-07-29T02:22:58.406Z,0
2022-07-29T02:23:58.395Z,0
2022-07-29T02:24:58.386Z,0
2022-07-29T02:25:58.379Z,0
2022-07-29T02:26:58.360Z,0
2022-07-29T02:27:58.350Z,0
2022-07-29T02:28:58.347Z,0
2022-07-29T02:29:58.336Z,0
2022-07-29T02:30:58.326Z,0
2022-07-29T02:31:58.311Z,0
2022-07-29T02:32:58.316Z,0
2022-07-29T02:33:58.289Z,0
2022-07-29T02:34:58.299Z,0
2022-07-29T02:35:58.268Z,0
2022-07-29T02:36:58.259Z,0
2022-07-29T02:37:58.260Z,0
2022-07-29T02:38:58.257Z,0
2022-07-29T02:39:58.230Z,0
2022-07-29T02:40:58.216Z,0
2022-07-29T02:41:58.201Z,0
2022-07-29T02:42:58.195Z,0
2022-07-29T02:43:58.204Z,0
2022-07-29T02:44:58.177Z,0
2022-07-29T02:45:58.162Z,0
2022-07-29T02:46:58.158Z,0
2022-07-29T02:47:58.137Z,0
2022-07-29T02:48:58.132Z,0
2022-07-29T02:49:58.132Z,0
2022-07-29T02:50:58.114Z,0
2022-07-29T02:51:58.101Z,0
2022-07-29T02:52:58.089Z,0
2022-07-29T02:53:58.096Z,0
2022-07-29T02:54:58.074Z,0
2022-07-29T02:55:58.062Z,0
2022-07-29T02:56:58.048Z,0
2022-07-29T02:57:58.042Z,0
2022-07-29T02:58:58.030Z,0
2022-07-29T02:59:58.016Z,0
2022-07-29T03:00:58.010Z,0
2022-07-29T03:01:57.991Z,0
2022-07-29T03:02:57.986Z,0
2022-07-29T03:03:57.974Z,0
2022-07-29T03:04:57.964Z,0
2022-07-29T03:05:57.955Z,0
2022-07-29T03:06:57.938Z,0
2022-07-29T03:07:57.947Z,0
2022-07-29T03:08:57.928Z,0
2022-07-29T03:09:57.914Z,0
2022-07-29T03:10:57.902Z,0
2022-07-29T03:11:57.889Z,0
2022-07-29T03:12:57.879Z,0
2022-07-29T03:13:57.871Z,0
2022-07-29T03:14:57.860Z,0
2022-07-29T03:15:57.857Z,0
2022-07-29T03:16:57.833Z,0
2022-07-29T03:17:57.830Z,0
2022-07-29T03:18:57.829Z,0
2022-07-29T03:19:57.813Z,0
2022-07-29T03:20:57.789Z,0
2022-07-29T03:21:57.792Z,0
2022-07-29T03:22:57.771Z,0
2022-07-29T03:23:57.760Z,0
2022-07-29T03:24:57.756Z,0
2022-07-29T03:25:57.747Z,0
2022-07-29T03:26:57.730Z,0
2022-07-29T03:27:57.733Z,0
2022-07-29T03:28:57.711Z,0
2022-07-29T03:29:57.694Z,0
2022-07-29T03:30:57.693Z,0
2022-07-29T03:31:57.689Z,0
2022-07-29T03:32:57.672Z,0
2022-07-29T03:33:57.670Z,0
2022-07-29T03:34:57.640Z,0
2022-07-29T03:35:57.636Z,0
2022-07-29T03:36:57.630Z,0
2022-07-29T03:37:57.624Z,0
2022-07-29T03:38:57.600Z,0
2022-07-29T03:39:57.603Z,0
2022-07-29T03:40:57.582Z,0
2022-07-29T03:41:57.583Z,0
2022-07-29T03:42:57.583Z,0
2022-07-29T03:43:57.550Z,0
2022-07-29T03:44:57.537Z,0
2022-07-29T03:45:57.544Z,0
2022-07-29T03:46:57.513Z,0
2022-07-29T03:47:57.520Z,0
2022-07-29T03:48:57.500Z,0
2022-07-29T03:49:57.491Z,0
2022-07-29T03:50:57.474Z,0
2022-07-29T03:51:57.470Z,0
2022-07-29T03:52:57.449Z,0
2022-07-29T03:53:57.447Z,0
2022-07-29T03:54:57.459Z,0
2022-07-29T03:55:57.421Z,0
2022-07-29T03:56:57.411Z,0
2022-07-29T03:57:57.402Z,0
2022-07-29T03:58:57.392Z,0
2022-07-29T03:59:57.383Z,0
2022-07-29T04:00:57.371Z,0
2022-07-29T04:01:57.362Z,0
2022-07-29T04:02:57.349Z,0
2022-07-29T04:03:57.337Z,5.62
2022-07-29T04:04:57.334Z,5.62
2022-07-29T04:05:57.314Z,5.62
2022-07-29T04:06:57.311Z,5.62
2022-07-29T04:07:57.292Z,5.62
2022-07-29T04:08:57.287Z,5.62
2022-07-29T04:09:57.276Z,5.62
2022-07-29T04:10:57.261Z,5.62
2022-07-29T04:11:57.256Z,5.62
2022-07-29T04:12:57.253Z,5.62
2022-07-29T04:13:57.231Z,5.62
2022-07-29T04:14:57.219Z,5.62
2022-07-29T04:15:57.221Z,5.62
2022-07-29T04:16:57.198Z,5.62
2022-07-29T04:17:57.188Z,5.62
2022-07-29T04:18:57.185Z,5.62
2022-07-29T04:19:57.168Z,5.62
2022-07-29T04:20:57.155Z,5.62
2022-07-29T04:21:57.147Z,5.62
2022-07-29T04:22:57.134Z,5.62
2022-07-29T04:23:57.134Z,5.62
2022-07-29T04:24:57.113Z,5.62
2022-07-29T04:25:57.114Z,5.62
2022-07-29T04:26:57.095Z,11.25
2022-07-29T04:27:57.104Z,11.25
2022-07-29T04:28:57.069Z,11.25
2022-07-29T04:29:57.063Z,11.25
2022-07-29T04:30:57.057Z,11.25
2022-07-29T04:31:57.040Z,11.25
2022-07-29T04:32:57.039Z,11.25
2022-07-29T04:33:57.021Z,11.25
2022-07-29T04:34:57.013Z,11.25
2022-07-29T04:35:56.995Z,11.25
2022-07-29T04:36:56.998Z,11.25
2022-07-29T04:37:57.870Z,16.88
2022-07-29T04:38:56.964Z,16.88
2022-07-29T04:39:56.957Z,16.88
2022-07-29T04:40:56.942Z,16.88
2022-07-29T04:41:56.945Z,16.88
2022-07-29T04:42:56.930Z,16.88
2022-07-29T04:43:56.916Z,16.88
2022-07-29T04:44:56.902Z,16.88
2022-07-29T04:45:56.904Z,16.88
2022-07-29T04:46:56.878Z,16.88
2022-07-29T04:47:56.878Z,16.88
2022-07-29T04:48:56.859Z,16.88
2022-07-29T04:49:56.850Z,16.88
2022-07-29T04:50:56.838Z,16.88
2022-07-29T04:51:56.836Z,16.88
2022-07-29T04:52:56.816Z,16.88
2022-07-29T04:53:56.818Z,16.88
2022-07-29T04:54:56.797Z,22.5
2022-07-29T04:55:56.786Z,22.5
2022-07-29T04:56:56.771Z,22.5
2022-07-29T04:57:56.782Z,22.5
2022-07-29T04:58:56.761Z,22.5
2022-07-29T04:59:56.741Z,22.5
2022-07-29T05:00:56.734Z,22.5
2022-07-29T05:01:56.729Z,22.5
2022-07-29T05:02:56.716Z,28.12
2022-07-29T05:03:56.773Z,28.12
2022-07-29T05:04:56.699Z,28.12
2022-07-29T05:05:56.692Z,28.12
2022-07-29T05:06:56.671Z,22.5
2022-07-29T05:07:56.658Z,28.12
2022-07-29T05:08:56.661Z,28.12
2022-07-29T05:09:56.641Z,22.5
2022-07-29T05:10:56.629Z,22.5
2022-07-29T05:11:56.622Z,22.5
2022-07-29T05:12:56.604Z,22.5
2022-07-29T05:13:56.611Z,22.5
2022-07-29T05:14:56.588Z,22.5
2022-07-29T05:15:56.574Z,16.88
2022-07-29T05:16:56.561Z,16.88
2022-07-29T05:17:56.553Z,16.88
2022-07-29T05:18:56.542Z,16.88
2022-07-29T05:19:56.538Z,16.88
2022-07-29T05:20:56.527Z,16.88
2022-07-29T05:21:56.508Z,16.88
2022-07-29T05:22:56.500Z,22.5
2022-07-29T05:23:56.496Z,22.5
2022-07-29T05:24:56.480Z,22.5
2022-07-29T05:25:56.468Z,22.5
2022-07-29T05:26:56.453Z,22.5
2022-07-29T05:27:56.442Z,22.5
2022-07-29T05:28:56.436Z,22.5
2022-07-29T05:29:56.428Z,28.12
2022-07-29T05:30:56.414Z,28.12
2022-07-29T05:31:56.406Z,28.12
2022-07-29T05:32:56.404Z,28.12
2022-07-29T05:33:56.405Z,28.12
2022-07-29T05:34:56.380Z,28.12
2022-07-29T05:35:56.366Z,33.75
2022-07-29T05:36:56.381Z,33.75
2022-07-29T05:37:56.337Z,33.75
2022-07-29T05:38:56.328Z,33.75
2022-07-29T05:39:56.320Z,33.75
2022-07-29T05:40:56.316Z,33.75
2022-07-29T05:41:56.302Z,33.75
2022-07-29T05:42:56.288Z,33.75
2022-07-29T05:43:56.275Z,33.75
2022-07-29T05:44:56.287Z,33.75
2022-07-29T05:45:56.256Z,33.75
2022-07-29T05:46:56.248Z,33.75
2022-07-29T05:47:56.239Z,33.75
2022-07-29T05:48:56.222Z,33.75
2022-07-29T05:49:56.213Z,33.75
2022-07-29T05:50:56.201Z,33.75
2022-07-29T05:51:56.191Z,33.75
2022-07-29T05:52:56.185Z,33.75
2022-07-29T05:53:56.169Z,33.75
2022-07-29T05:54:56.163Z,33.75
2022-07-29T05:55:56.150Z,39.38
2022-07-29T05:56:56.137Z,39.38
2022-07-29T05:57:56.126Z,39.38
2022-07-29T05:58:56.118Z,45
2022-07-29T05:59:56.103Z,45
2022-07-29T06:00:56.102Z,45
2022-07-29T06:01:56.092Z,45
2022-07-29T06:02:56.071Z,45
2022-07-29T06:03:56.061Z,45
2022-07-29T06:04:56.054Z,45
2022-07-29T06:05:56.045Z,45
2022-07-29T06:06:56.030Z,45
2022-07-29T06:07:56.020Z,50.62
2022-07-29T06:08:56.017Z,50.62
2022-07-29T06:09:55.999Z,50.62
2022-07-29T06:10:56.010Z,50.62
2022-07-29T06:11:55.978Z,50.62
2022-07-29T06:12:55.983Z,50.62
2022-07-29T06:13:55.960Z,50.62
2022-07-29T06:14:55.943Z,56.25
2022-07-29T06:15:55.948Z,56.25
2022-07-29T06:16:55.926Z,56.25
2022-07-29T06:17:55.913Z,56.25
2022-07-29T06:18:55.916Z,61.88
2022-07-29T06:19:55.894Z,61.88
2022-07-29T06:20:55.892Z,67.5
2022-07-29T06:21:55.878Z,67.5
2022-07-29T06:22:55.890Z,67.5
2022-07-29T06:23:55.854Z,67.5
2022-07-29T06:24:55.844Z,67.5
2022-07-29T06:25:55.832Z,73.12
2022-07-29T06:26:55.832Z,73.12
2022-07-29T06:27:55.806Z,73.12
2022-07-29T06:28:55.810Z,73.12
2022-07-29T06:29:55.804Z,73.12
2022-07-29T06:30:55.774Z,73.12
2022-07-29T06:31:55.796Z,73.12
2022-07-29T06:32:55.756Z,73.12
2022-07-29T06:33:55.757Z,73.12
2022-07-29T06:34:55.751Z,78.75
2022-07-29T06:35:55.744Z,78.75
2022-07-29T06:36:55.712Z,78.75
2022-07-29T06:37:55.704Z,78.75
2022-07-29T06:38:55.698Z,84.38
2022-07-29T06:39:55.684Z,84.38
2022-07-29T06:40:55.678Z,84.38
2022-07-29T06:41:55.658Z,84.38
2022-07-29T06:42:55.674Z,84.38
2022-07-29T06:43:55.664Z,84.38
2022-07-29T06:44:55.636Z,84.38
2022-07-29T06:45:55.632Z,84.38
2022-07-29T06:46:55.624Z,84.38
2022-07-29T06:47:55.598Z,84.38
2022-07-29T06:48:55.584Z,84.38
2022-07-29T06:49:56.386Z,84.38
2022-07-29T06:50:55.564Z,84.38
2022-07-29T06:51:56.386Z,84.38
2022-07-29T06:52:55.564Z,84.38
2022-07-29T06:53:55.536Z,84.38
2022-07-29T06:54:55.522Z,84.38
2022-07-29T06:55:55.517Z,84.38
2022-07-29T06:56:55.509Z,78.75
2022-07-29T06:57:55.499Z,78.75
2022-07-29T06:58:55.500Z,78.75
2022-07-29T06:59:55.471Z,73.12
2022-07-29T07:00:55.466Z,73.12
2022-07-29T07:01:55.450Z,73.12
2022-07-29T07:02:55.436Z,73.12
2022-07-29T07:03:55.427Z,73.12
2022-07-29T07:04:55.429Z,73.12
2022-07-29T07:05:55.409Z,67.5
2022-07-29T07:06:55.400Z,73.12
2022-07-29T07:07:55.456Z,67.5
2022-07-29T07:08:55.383Z,67.5
2022-07-29T07:09:55.364Z,67.5
2022-07-29T07:10:55.364Z,67.5
2022-07-29T07:11:55.344Z,67.5
2022-07-29T07:12:55.370Z,67.5
2022-07-29T07:13:55.324Z,67.5
2022-07-29T07:14:55.314Z,67.5
2022-07-29T07:15:55.302Z,67.5
2022-07-29T07:16:55.310Z,67.5
2022-07-29T07:17:55.279Z,67.5
2022-07-29T07:18:55.276Z,67.5
2022-07-29T07:19:55.271Z,73.12
2022-07-29T07:20:55.250Z,73.12
2022-07-29T07:21:55.239Z,78.75
2022-07-29T07:22:55.264Z,78.75
2022-07-29T07:23:55.213Z,84.38
2022-07-29T07:24:55.209Z,84.38
2022-07-29T07:25:55.197Z,90
2022-07-29T07:26:55.195Z,95.62
2022-07-29T07:27:55.178Z,95.62
2022-07-29T07:28:55.164Z,101.25
2022-07-29T07:29:55.158Z,106.88
2022-07-29T07:30:55.142Z,112.5
2022-07-29T07:31:55.133Z,118.12
2022-07-29T07:32:55.122Z,118.12
2022-07-29T07:33:55.115Z,123.75
2022-07-29T07:34:55.149Z,123.75
2022-07-29T07:35:55.090Z,129.38
2022-07-29T07:36:55.081Z,135
2022-07-29T07:37:55.071Z,140.62
2022-07-29T07:38:55.058Z,140.62
2022-07-29T07:39:55.052Z,140.62
2022-07-29T07:40:55.039Z,140.62
2022-07-29T07:41:55.035Z,140.62
2022-07-29T07:42:55.035Z,140.62
2022-07-29T07:43:55.007Z,146.25
2022-07-29T07:44:55.003Z,151.88
2022-07-29T07:45:54.991Z,151.88
2022-07-29T07:46:54.989Z,157.5
2022-07-29T07:47:54.966Z,163.12
2022-07-29T07:48:54.965Z,163.12
2022-07-29T07:49:54.942Z,168.75
2022-07-29T07:50:54.937Z,174.38
2022-07-29T07:51:54.935Z,174.38
2022-07-29T07:52:54.915Z,180
2022-07-29T07:53:54.910Z,180
2022-07-29T07:54:54.894Z,185.62
2022-07-29T07:55:54.891Z,191.25
2022-07-29T07:56:54.870Z,191.25
2022-07-29T07:57:54.874Z,202.5
2022-07-29T07:58:54.896Z,208.12
2022-07-29T07:59:54.843Z,202.5
2022-07-29T08:00:54.830Z,196.88
2022-07-29T08:01:54.820Z,196.88
2022-07-29T08:02:54.811Z,196.88
2022-07-29T08:03:54.831Z,191.25
2022-07-29T08:04:54.784Z,185.62
2022-07-29T08:05:54.775Z,185.62
2022-07-29T08:06:54.761Z,185.62
2022-07-29T08:07:54.751Z,196.88
2022-07-29T08:08:54.740Z,191.25
2022-07-29T08:09:54.754Z,219.38
2022-07-29T08:10:54.746Z,258.75
2022-07-29T08:11:54.712Z,264.38
2022-07-29T08:12:54.691Z,213.75
2022-07-29T08:13:54.705Z,225
2022-07-29T08:14:54.682Z,225
2022-07-29T08:15:54.660Z,225
2022-07-29T08:16:54.655Z,219.38
2022-07-29T08:17:54.645Z,219.38
2022-07-29T08:18:54.633Z,219.38
2022-07-29T08:19:54.666Z,219.38
2022-07-29T08:20:54.632Z,275.62
2022-07-29T08:21:55.417Z,286.88
2022-07-29T08:22:54.621Z,236.25
2022-07-29T08:23:54.587Z,225
2022-07-29T08:24:54.577Z,264.38
2022-07-29T08:25:54.572Z,253.12
2022-07-29T08:26:54.552Z,219.38
2022-07-29T08:27:54.567Z,219.38
2022-07-29T08:28:54.526Z,230.62
2022-07-29T08:29:54.527Z,202.5
2022-07-29T08:30:54.510Z,208.12
2022-07-29T08:31:54.499Z,264.38
2022-07-29T08:32:54.488Z,292.5
2022-07-29T08:33:54.473Z,309.38
2022-07-29T08:34:54.472Z,309.38
2022-07-29T08:35:54.546Z,292.5
2022-07-29T08:36:54.452Z,286.88
2022-07-29T08:37:54.435Z,292.5
2022-07-29T08:38:54.425Z,258.75
2022-07-29T08:39:54.420Z,292.5
2022-07-29T08:40:54.400Z,264.38
2022-07-29T08:41:54.391Z,258.75
2022-07-29T08:42:54.381Z,196.88
2022-07-29T08:43:54.370Z,196.88
2022-07-29T08:44:54.376Z,202.5
2022-07-29T08:45:54.365Z,202.5
2022-07-29T08:46:54.347Z,213.75
2022-07-29T08:47:54.340Z,208.12
2022-07-29T08:48:54.341Z,298.12
2022-07-29T08:49:54.309Z,208.12
2022-07-29T08:50:54.294Z,202.5
2022-07-29T08:51:54.291Z,241.88
2022-07-29T08:52:54.287Z,219.38
2022-07-29T08:53:54.277Z,185.62
2022-07-29T08:54:54.270Z,185.62
2022-07-29T08:55:54.252Z,185.62
2022-07-29T08:56:54.239Z,208.12
2022-07-29T08:57:54.224Z,180
2022-07-29T08:58:54.227Z,174.38
2022-07-29T08:59:54.237Z,168.75
2022-07-29T09:00:54.224Z,168.75
2022-07-29T09:01:54.186Z,163.12
2022-07-29T09:02:54.176Z,163.12
2022-07-29T09:03:54.204Z,157.5
2022-07-29T09:04:54.153Z,157.5
2022-07-29T09:05:54.138Z,157.5
2022-07-29T09:06:54.132Z,151.88
2022-07-29T09:07:54.125Z,151.88
2022-07-29T09:08:54.126Z,151.88
2022-07-29T09:09:54.104Z,163.12
2022-07-29T09:10:54.089Z,174.38
2022-07-29T09:11:54.076Z,174.38
2022-07-29T09:12:54.078Z,174.38
2022-07-29T09:13:54.058Z,253.12
2022-07-29T09:14:54.055Z,151.88
2022-07-29T09:15:54.888Z,135
2022-07-29T09:16:54.030Z,135
2022-07-29T09:17:54.015Z,135
2022-07-29T09:18:54.003Z,129.38
2022-07-29T09:19:53.999Z,123.75
2022-07-29T09:20:54.004Z,118.12
2022-07-29T09:21:53.993Z,118.12
2022-07-29T09:22:53.998Z,118.12
2022-07-29T09:23:54.001Z,118.12
2022-07-29T09:24:53.940Z,118.12
2022-07-29T09:25:53.944Z,118.12
2022-07-29T09:26:54.891Z,118.12
2022-07-29T09:27:53.933Z,118.12
2022-07-29T09:28:53.907Z,118.12
2022-07-29T09:29:53.887Z,123.75
2022-07-29T09:30:53.882Z,135
2022-07-29T09:32:01.467Z,146.25
2022-07-29T09:33:01.471Z,151.88
2022-07-29T09:34:01.408Z,168.75
2022-07-29T09:35:01.397Z,185.62
2022-07-29T09:36:01.392Z,208.12
2022-07-29T09:37:01.377Z,213.75
2022-07-29T09:37:53.809Z,213.75
2022-07-29T09:38:53.811Z,202.5
2022-07-29T09:39:53.793Z,185.62
2022-07-29T09:40:53.773Z,174.38
2022-07-29T09:42:01.345Z,163.12
2022-07-29T09:42:53.747Z,151.88
2022-07-29T09:44:01.318Z,146.25
2022-07-29T09:44:53.741Z,146.25
2022-07-29T09:45:53.727Z,146.25
2022-07-29T09:46:53.717Z,146.25
2022-07-29T09:47:53.705Z,140.62
2022-07-29T09:48:53.685Z,129.38
2022-07-29T09:49:53.700Z,123.75
2022-07-29T09:50:53.688Z,123.75
2022-07-29T09:51:53.677Z,118.12
2022-07-29T09:52:53.658Z,118.12
2022-07-29T09:53:53.644Z,112.5
2022-07-29T09:54:53.632Z,112.5
2022-07-29T09:55:53.666Z,112.5
2022-07-29T09:56:53.632Z,112.5
2022-07-29T09:57:53.593Z,112.5
2022-07-29T09:58:53.607Z,118.12
2022-07-29T09:59:53.586Z,118.12
2022-07-29T10:00:53.561Z,118.12
2022-07-29T10:01:53.572Z,123.75
2022-07-29T10:02:54.087Z,129.38
2022-07-29T10:03:53.536Z,129.38
2022-07-29T10:04:53.559Z,135
2022-07-29T10:05:53.546Z,135
2022-07-29T10:06:53.512Z,135
2022-07-29T10:07:53.494Z,135
2022-07-29T10:08:53.486Z,135
2022-07-29T10:09:53.481Z,135
2022-07-29T10:10:53.461Z,135
2022-07-29T10:11:53.450Z,135
2022-07-29T10:12:53.471Z,135
2022-07-29T10:13:53.426Z,140.62
2022-07-29T10:14:53.433Z,140.62
2022-07-29T10:15:53.418Z,140.62
2022-07-29T10:16:53.394Z,146.25
2022-07-29T10:17:53.381Z,146.25
2022-07-29T10:18:53.378Z,151.88
2022-07-29T10:19:53.364Z,157.5
2022-07-29T10:20:53.368Z,157.5
2022-07-29T10:21:53.365Z,163.12
2022-07-29T10:22:53.335Z,168.75
2022-07-29T10:23:53.325Z,174.38
2022-07-29T10:24:53.314Z,185.62
2022-07-29T10:25:53.303Z,191.25
2022-07-29T10:26:53.319Z,202.5
2022-07-29T10:27:53.293Z,208.12
2022-07-29T10:28:53.279Z,213.75
2022-07-29T10:29:53.287Z,213.75
2022-07-29T10:30:53.249Z,225
2022-07-29T10:31:53.237Z,230.62
2022-07-29T10:32:53.238Z,241.88
2022-07-29T10:33:53.253Z,247.5
2022-07-29T10:34:53.296Z,253.12
2022-07-29T10:35:53.195Z,253.12
2022-07-29T10:36:53.188Z,258.75
2022-07-29T10:37:53.213Z,258.75
2022-07-29T10:38:53.199Z,253.12
2022-07-29T10:39:53.159Z,241.88
2022-07-29T10:40:53.146Z,225
2022-07-29T10:41:53.132Z,208.12
2022-07-29T10:42:53.143Z,202.5
2022-07-29T10:43:53.118Z,196.88
2022-07-29T10:44:53.127Z,191.25
2022-07-29T10:45:53.094Z,185.62
2022-07-29T10:46:53.106Z,185.62
2022-07-29T10:47:53.074Z,185.62
2022-07-29T10:48:53.109Z,185.62
2022-07-29T10:49:53.050Z,191.25
2022-07-29T10:50:53.037Z,191.25
2022-07-29T10:51:53.056Z,196.88
2022-07-29T10:52:53.032Z,191.25
2022-07-29T10:53:53.009Z,185.62
2022-07-29T10:54:53.018Z,185.62
2022-07-29T10:55:52.992Z,185.62
2022-07-29T10:56:52.976Z,185.62
2022-07-29T10:57:53.070Z,180
2022-07-29T10:58:52.951Z,174.38
2022-07-29T10:59:52.943Z,174.38
2022-07-29T11:00:52.959Z,168.75
2022-07-29T11:01:52.932Z,163.12
2022-07-29T11:02:52.957Z,157.5
2022-07-29T11:03:52.904Z,151.88
2022-07-29T11:04:52.896Z,151.88
2022-07-29T11:05:52.882Z,146.25
2022-07-29T11:06:52.877Z,140.62
2022-07-29T11:07:52.869Z,140.62
2022-07-29T11:08:52.892Z,140.62
2022-07-29T11:09:52.841Z,135
2022-07-29T11:10:52.844Z,135
2022-07-29T11:11:52.821Z,129.38
2022-07-29T11:12:52.815Z,129.38
2022-07-29T11:13:52.802Z,129.38
2022-07-29T11:14:52.805Z,129.38
2022-07-29T11:15:52.784Z,129.38
2022-07-29T11:16:52.775Z,129.38
2022-07-29T11:17:52.756Z,129.38
2022-07-29T11:18:53.592Z,129.38
2022-07-29T11:19:52.738Z,123.75
2022-07-29T11:20:52.724Z,123.75
2022-07-29T11:21:52.733Z,123.75
2022-07-29T11:22:52.722Z,123.75
2022-07-29T11:23:52.694Z,129.38
2022-07-29T11:24:52.687Z,129.38
2022-07-29T11:25:52.691Z,135
2022-07-29T11:26:52.663Z,135
2022-07-29T11:27:52.674Z,140.62
2022-07-29T11:28:52.644Z,146.25
2022-07-29T11:29:52.632Z,151.88
2022-07-29T11:30:52.637Z,157.5
2022-07-29T11:31:52.612Z,157.5
2022-07-29T11:32:52.613Z,163.12
2022-07-29T11:33:52.590Z,168.75
2022-07-29T11:34:52.575Z,174.38
2022-07-29T11:35:52.615Z,180
2022-07-29T11:36:52.558Z,185.62
2022-07-29T11:37:52.555Z,196.88
2022-07-29T11:38:52.542Z,208.12
2022-07-29T11:39:52.531Z,219.38
2022-07-29T11:40:52.526Z,236.25
2022-07-29T11:41:52.513Z,258.75
2022-07-29T11:42:52.493Z,286.88
2022-07-29T11:43:52.491Z,309.38
2022-07-29T11:44:52.512Z,376.88
2022-07-29T11:45:52.613Z,624.38
2022-07-29T11:46:52.467Z,360
2022-07-29T11:47:52.449Z,292.5
2022-07-29T11:48:52.441Z,275.62
2022-07-29T11:49:52.498Z,281.25
2022-07-29T11:50:52.426Z,286.88
2022-07-29T11:51:52.399Z,303.75
2022-07-29T11:52:52.404Z,331.88
2022-07-29T11:53:52.380Z,354.38
2022-07-29T11:54:52.377Z,382.5
2022-07-29T11:55:52.371Z,506.25
2022-07-29T11:56:52.404Z,399.38
2022-07-29T11:57:52.339Z,376.88
2022-07-29T11:58:52.343Z,371.25
2022-07-29T11:59:52.334Z,382.5
2022-07-29T12:00:52.322Z,348.75
2022-07-29T12:01:52.332Z,360
2022-07-29T12:02:53.094Z,382.5
2022-07-29T12:03:52.271Z,444.38
2022-07-29T12:04:52.269Z,483.75
2022-07-29T12:05:52.255Z,399.38
2022-07-29T12:06:52.256Z,393.75
2022-07-29T12:07:52.238Z,405
2022-07-29T12:08:53.158Z,495
2022-07-29T12:09:52.213Z,466.88
2022-07-29T12:10:53.205Z,545.62
2022-07-29T12:11:52.196Z,534.38
2022-07-29T12:12:52.185Z,534.38
2022-07-29T12:13:52.176Z,489.38
2022-07-29T12:14:52.203Z,433.12
2022-07-29T12:15:52.152Z,410.62
2022-07-29T12:16:52.164Z,421.88
2022-07-29T12:17:52.132Z,433.12
2022-07-29T12:18:52.136Z,489.38
2022-07-29T12:19:52.113Z,545.62
2022-07-29T12:20:52.234Z,506.25
2022-07-29T12:21:52.090Z,438.75
2022-07-29T12:22:52.084Z,405
2022-07-29T12:23:52.085Z,371.25
2022-07-29T12:24:52.065Z,354.38
2022-07-29T12:25:52.054Z,354.38
2022-07-29T12:26:52.040Z,382.5
2022-07-29T12:27:52.035Z,433.12
2022-07-29T12:28:52.052Z,466.88
2022-07-29T12:29:52.040Z,500.62
2022-07-29T12:30:53.136Z,483.75
2022-07-29T12:31:52.001Z,478.12
2022-07-29T12:32:52.205Z,461.25
2022-07-29T12:33:51.986Z,455.62
2022-07-29T12:34:51.955Z,455.62
2022-07-29T12:35:51.941Z,455.62
2022-07-29T12:36:51.937Z,331.88
2022-07-29T12:37:51.935Z,343.12
2022-07-29T12:38:51.913Z,450
2022-07-29T12:39:51.900Z,450
2022-07-29T12:40:51.886Z,466.88
2022-07-29T12:41:51.877Z,646.88
2022-07-29T12:42:51.886Z,1057.5
2022-07-29T12:43:51.855Z,1186.88
2022-07-29T12:44:51.844Z,1254.38
2022-07-29T12:45:51.837Z,1057.5
2022-07-29T12:46:51.825Z,478.12
2022-07-29T12:47:51.817Z,309.38
2022-07-29T12:48:51.807Z,309.38
2022-07-29T12:49:51.812Z,331.88
2022-07-29T12:50:51.790Z,376.88
2022-07-29T12:51:51.778Z,556.88
2022-07-29T12:52:51.777Z,1203.75
2022-07-29T12:53:51.765Z,838.12
2022-07-29T12:54:51.745Z,1035
2022-07-29T12:55:52.643Z,495
2022-07-29T12:56:51.763Z,433.12
2022-07-29T12:57:51.723Z,675
2022-07-29T12:58:51.702Z,388.12
2022-07-29T12:59:51.705Z,376.88
2022-07-29T13:00:51.696Z,337.5
2022-07-29T13:01:51.732Z,348.75
2022-07-29T13:02:51.668Z,365.62
2022-07-29T13:03:51.655Z,416.25
2022-07-29T13:04:51.642Z,405
2022-07-29T13:05:51.629Z,472.5
2022-07-29T13:06:51.679Z,483.75
2022-07-29T13:07:51.613Z,472.5
2022-07-29T13:08:51.602Z,455.62
2022-07-29T13:09:51.647Z,438.75
2022-07-29T13:10:51.582Z,433.12
2022-07-29T13:11:51.581Z,421.88
2022-07-29T13:12:51.558Z,421.88
2022-07-29T13:13:51.580Z,427.5
2022-07-29T13:14:51.547Z,382.5
2022-07-29T13:15:51.530Z,405
2022-07-29T13:16:51.517Z,348.75
2022-07-29T13:17:51.523Z,399.38
2022-07-29T13:18:51.530Z,315
2022-07-29T13:19:51.508Z,298.12
2022-07-29T13:20:51.482Z,270